createdAt,value
2022-07-28T00:02:18.824Z,60.91
2022-07-28T00:04:49.925Z,61.47
2022-07-28T00:07:20.665Z,62.01
2022-07-28T00:09:54.474Z,61.78
2022-07-28T00:12:28.878Z,64.06
2022-07-28T00:15:00.294Z,64.18
2022-07-28T00:17:30.961Z,59.08
2022-07-28T00:20:02.829Z,56.78
2022-07-28T00:22:33.295Z,57.12
2022-07-28T00:25:05.006Z,58.81
2022-07-28T00:27:35.263Z,59.85
2022-07-28T00:30:06.628Z,60.39
2022-07-28T00:32:37.869Z,60.58
2022-07-28T00:35:09.293Z,62.81
2022-07-28T00:37:40.516Z,62.53
2022-07-28T00:40:12.428Z,58.92
2022-07-28T00:42:43.203Z,57.05
2022-07-28T00:45:14.129Z,57.97
2022-07-28T00:47:44.570Z,59.47
2022-07-28T00:50:16.664Z,59.47
2022-07-28T00:52:47.187Z,60.02
2022-07-28T00:55:18.174Z,60.34
2022-07-28T00:57:48.530Z,61.02
2022-07-28T01:00:19.993Z,61.92
2022-07-28T01:02:50.613Z,61.50
2022-07-28T01:05:43.856Z,62.06
2022-07-28T01:08:18.084Z,63.00
2022-07-28T01:10:53.575Z,61.68
2022-07-28T01:13:32.874Z,55.92
2022-07-28T01:16:05.711Z,55.78
2022-07-28T01:18:43.139Z,56.76
2022-07-28T01:21:17.069Z,56.65
2022-07-28T01:23:59.747Z,57.61
2022-07-28T01:26:40.173Z,59.06
2022-07-28T01:29:17.335Z,59.43
2022-07-28T01:31:51.075Z,59.51
2022-07-28T01:34:24.847Z,61.00
2022-07-28T01:36:58.919Z,61.69
2022-07-28T01:39:31.805Z,62.31
2022-07-28T01:42:03.806Z,65.80
2022-07-28T01:44:36.585Z,63.48
2022-07-28T01:47:08.080Z,58.24
2022-07-28T01:49:39.139Z,55.08
2022-07-28T01:52:10.483Z,55.75
2022-07-28T01:54:43.786Z,56.73
2022-07-28T01:57:15.763Z,57.33
2022-07-28T01:59:46.780Z,58.61
2022-07-28T02:02:19.048Z,59.00
2022-07-28T02:04:51.630Z,59.36
2022-07-28T02:07:23.926Z,59.00
2022-07-28T02:09:54.859Z,60.77
2022-07-28T02:12:26.795Z,60.65
2022-07-28T02:14:58.436Z,60.63
2022-07-28T02:17:31.139Z,61.20
2022-07-28T02:20:02.485Z,61.20
2022-07-28T02:22:34.489Z,60.96
2022-07-28T02:25:05.408Z,61.06
2022-07-28T02:27:37.715Z,61.62
2022-07-28T02:30:10.898Z,61.94
2022-07-28T02:32:44.476Z,64.95
2022-07-28T02:35:17.938Z,63.98
2022-07-28T02:37:53.684Z,57.80
2022-07-28T02:40:24.727Z,56.57
2022-07-28T02:42:56.116Z,57.08
2022-07-28T02:45:27.991Z,58.14
2022-07-28T02:48:02.452Z,59.00
2022-07-28T02:50:32.881Z,59.48
2022-07-28T02:53:15.273Z,59.91
2022-07-28T02:55:48.524Z,60.27
2022-07-28T02:58:21.325Z,60.99
2022-07-28T03:00:52.915Z,61.31
2022-07-28T03:03:24.037Z,61.43
2022-07-28T03:05:54.897Z,61.53
2022-07-28T03:08:25.732Z,61.70
2022-07-28T03:11:08.860Z,61.74
2022-07-28T03:13:39.777Z,65.03
2022-07-28T03:16:10.678Z,64.37
2022-07-28T03:18:41.568Z,58.60
2022-07-28T03:21:12.607Z,56.42
2022-07-28T03:23:44.460Z,56.60
2022-07-28T03:26:18.308Z,57.73
2022-07-28T03:28:52.174Z,58.05
2022-07-28T03:31:23.381Z,59.03
2022-07-28T03:33:54.427Z,59.90
2022-07-28T03:36:27.496Z,60.43
2022-07-28T03:39:00.663Z,60.87
2022-07-28T03:41:31.270Z,61.52
2022-07-28T03:44:03.130Z,61.88
2022-07-28T03:46:33.917Z,61.68
2022-07-28T03:49:08.741Z,61.95
2022-07-28T03:51:39.319Z,65.42
2022-07-28T03:54:10.660Z,65.18
2022-07-28T03:56:41.421Z,57.99
2022-07-28T03:59:12.957Z,56.77
2022-07-28T04:01:45.421Z,57.76
2022-07-28T04:04:17.871Z,58.57
2022-07-28T04:06:48.904Z,60.16
2022-07-28T04:09:19.784Z,59.47
2022-07-28T04:11:50.406Z,60.05
2022-07-28T04:14:21.526Z,60.65
2022-07-28T04:16:52.609Z,60.51
2022-07-28T04:19:23.634Z,61.08
2022-07-28T04:21:54.214Z,61.82
2022-07-28T04:24:24.930Z,61.72
2022-07-28T04:26:55.518Z,61.76
2022-07-28T04:29:27.141Z,62.34
2022-07-28T04:31:58.318Z,65.03
2022-07-28T04:34:29.467Z,62.14
2022-07-28T04:37:00.137Z,57.59
2022-07-28T04:39:31.751Z,55.65
2022-07-28T04:42:02.581Z,56.28
2022-07-28T04:44:33.488Z,57.65
2022-07-28T04:47:03.850Z,57.73
2022-07-28T04:49:35.748Z,59.02
2022-07-28T04:52:08.410Z,59.26
2022-07-28T04:54:39.936Z,59.97
2022-07-28T04:57:12.833Z,60.34
2022-07-28T04:59:46.262Z,60.38
2022-07-28T05:02:18.941Z,61.44
2022-07-28T05:04:49.839Z,62.30
2022-07-28T05:07:20.975Z,61.77
2022-07-28T05:09:51.560Z,61.57
2022-07-28T05:12:22.033Z,61.39
2022-07-28T05:14:52.599Z,61.26
2022-07-28T05:17:23.391Z,60.32
2022-07-28T05:19:54.308Z,60.76
2022-07-28T05:22:24.762Z,60.80
2022-07-28T05:24:55.436Z,61.34
2022-07-28T05:27:25.961Z,61.69
2022-07-28T05:29:56.492Z,62.02
2022-07-28T05:32:27.414Z,61.73
2022-07-28T05:34:59.618Z,61.45
2022-07-28T05:37:30.415Z,62.04
2022-07-28T05:40:00.891Z,61.62
2022-07-28T05:42:36.059Z,61.42
2022-07-28T05:45:15.579Z,61.37
2022-07-28T05:47:47.659Z,61.61
2022-07-28T05:50:18.901Z,61.82
2022-07-28T05:52:50.360Z,61.78
2022-07-28T05:55:21.206Z,61.54
2022-07-28T05:57:52.239Z,60.54
2022-07-28T06:00:23.984Z,60.29
2022-07-28T06:02:54.612Z,60.06
2022-07-28T06:05:25.650Z,60.36
2022-07-28T06:07:56.399Z,60.59
2022-07-28T06:10:28.272Z,61.30
2022-07-28T06:12:58.805Z,60.99
2022-07-28T06:15:30.576Z,60.89
2022-07-28T06:18:01.064Z,61.28
2022-07-28T06:20:31.798Z,61.67
2022-07-28T06:23:02.372Z,62.17
2022-07-28T06:25:33.619Z,62.42
2022-07-28T06:28:04.709Z,56.55
2022-07-28T06:30:35.486Z,55.80
2022-07-28T06:33:07.990Z,56.47
2022-07-28T06:35:46.652Z,57.97
2022-07-28T06:38:20.851Z,58.73
2022-07-28T06:40:51.894Z,59.03
2022-07-28T06:43:22.120Z,59.37
2022-07-28T06:45:52.830Z,59.31
2022-07-28T06:48:25.857Z,60.11
2022-07-28T06:51:00.085Z,60.08
2022-07-28T06:53:33.475Z,60.49
2022-07-28T06:56:06.094Z,60.66
2022-07-28T06:58:36.652Z,60.25
2022-07-28T07:01:09.153Z,60.30
2022-07-28T07:03:39.648Z,60.02
2022-07-28T07:06:11.415Z,60.00
2022-07-28T07:08:41.848Z,60.29
2022-07-28T07:11:13.695Z,60.11
2022-07-28T07:13:44.018Z,59.77
2022-07-28T07:16:15.047Z,59.09
2022-07-28T07:18:45.491Z,58.98
2022-07-28T07:21:16.429Z,58.99
2022-07-28T07:23:46.952Z,58.84
2022-07-28T07:26:17.993Z,58.36
2022-07-28T07:28:48.627Z,58.01
2022-07-28T07:31:19.567Z,57.06
2022-07-28T07:33:49.982Z,57.64
2022-07-28T07:36:20.927Z,58.30
2022-07-28T07:38:51.204Z,57.33
2022-07-28T07:41:22.596Z,56.14
2022-07-28T07:43:53.017Z,56.53
2022-07-28T07:46:24.357Z,56.31
2022-07-28T07:48:55.260Z,55.70
2022-07-28T07:51:26.243Z,56.25
2022-07-28T07:53:56.579Z,55.59
2022-07-28T07:56:27.444Z,55.30
2022-07-28T07:58:58.889Z,55.50
2022-07-28T08:01:30.171Z,55.30
2022-07-28T08:04:01.206Z,55.32
2022-07-28T08:06:34.331Z,54.79
2022-07-28T08:09:06.805Z,54.92
2022-07-28T08:11:37.514Z,54.35
2022-07-28T08:14:07.800Z,54.03
2022-07-28T08:16:38.387Z,54.32
2022-07-28T08:19:09.172Z,54.03
2022-07-28T08:21:39.754Z,54.24
2022-07-28T08:24:11.088Z,54.64
2022-07-28T08:26:48.608Z,54.32
2022-07-28T08:29:19.330Z,52.13
2022-07-28T08:31:50.039Z,52.89
2022-07-28T08:34:31.174Z,52.85
2022-07-28T08:37:04.839Z,52.29
2022-07-28T08:39:36.334Z,52.59
2022-07-28T08:42:08.094Z,53.05
2022-07-28T08:44:45.261Z,52.13
2022-07-28T08:47:17.228Z,51.86
2022-07-28T08:49:48.575Z,52.58
2022-07-28T08:52:21.423Z,52.82
2022-07-28T08:54:52.044Z,52.63
2022-07-28T08:57:24.075Z,52.11
2022-07-28T08:59:54.743Z,52.39
2022-07-28T09:02:26.565Z,52.16
2022-07-28T09:04:57.415Z,51.87
2022-07-28T09:07:28.379Z,52.18
2022-07-28T09:10:02.782Z,52.19
2022-07-28T09:12:34.542Z,49.62
2022-07-28T09:15:05.649Z,50.86
2022-07-28T09:17:37.198Z,50.24
2022-07-28T09:20:11.224Z,48.87
2022-07-28T09:25:42.149Z,50.53
2022-07-28T09:28:13.830Z,50.17
2022-07-28T09:30:53.261Z,49.76
2022-07-28T09:33:41.903Z,49.19
2022-07-28T09:36:17.209Z,49.61
2022-07-28T09:38:48.455Z,49.22
2022-07-28T09:41:22.458Z,49.43
2022-07-28T09:43:55.890Z,48.34
2022-07-28T09:46:29.714Z,48.44
2022-07-28T09:49:01.540Z,47.98
2022-07-28T09:51:33.895Z,48.16
2022-07-28T09:54:11.911Z,49.56
2022-07-28T09:56:44.294Z,48.62
2022-07-28T09:59:16.262Z,48.73
2022-07-28T10:01:53.840Z,49.08
2022-07-28T10:04:34.325Z,49.07
2022-07-28T10:07:07.089Z,47.96
2022-07-28T10:09:38.310Z,48.00
2022-07-28T10:12:19.526Z,48.54
2022-07-28T10:14:50.633Z,47.24
2022-07-28T10:17:30.735Z,47.44
2022-07-28T10:20:03.259Z,48.24
2022-07-28T10:22:37.279Z,48.34
2022-07-28T10:25:12.794Z,47.61
2022-07-28T10:27:44.018Z,47.33
2022-07-28T10:30:15.680Z,47.19
2022-07-28T10:32:47.098Z,45.89
2022-07-28T10:35:18.782Z,46.63
2022-07-28T10:37:52.905Z,46.47
2022-07-28T10:40:26.535Z,46.59
2022-07-28T10:42:57.360Z,46.38
2022-07-28T10:45:48.159Z,46.45
2022-07-28T10:48:20.895Z,45.87
2022-07-28T10:50:55.573Z,46.17
2022-07-28T10:53:32.854Z,45.77
2022-07-28T10:56:08.565Z,45.51
2022-07-28T10:58:46.344Z,45.71
2022-07-28T11:01:48.265Z,45.84
2022-07-28T11:04:37.054Z,45.99
2022-07-28T11:07:14.516Z,45.84
2022-07-28T11:09:45.457Z,45.71
2022-07-28T11:12:16.762Z,44.90
2022-07-28T11:14:47.538Z,45.36
2022-07-28T11:17:24.249Z,46.08
2022-07-28T11:22:49.296Z,45.23
2022-07-28T11:25:22.575Z,45.18
2022-07-28T11:28:04.678Z,45.31
2022-07-28T11:30:55.333Z,44.46
2022-07-28T11:33:27.690Z,45.00
2022-07-28T11:35:59.179Z,45.04
2022-07-28T11:38:30.124Z,44.61
2022-07-28T11:41:00.914Z,44.92
2022-07-28T11:43:37.485Z,44.83
2022-07-28T11:46:32.913Z,44.94
2022-07-28T11:49:21.147Z,44.66
2022-07-28T11:52:22.617Z,44.70
2022-07-28T11:54:55.577Z,44.86
2022-07-28T11:57:27.164Z,45.16
2022-07-28T12:00:02.042Z,44.61
2022-07-28T12:02:36.762Z,44.54
2022-07-28T12:05:12.161Z,44.11
2022-07-28T12:07:47.062Z,43.68
2022-07-28T12:13:29.501Z,44.93
2022-07-28T12:16:00.288Z,44.75
2022-07-28T12:18:31.673Z,43.24
2022-07-28T12:21:05.198Z,41.37
2022-07-28T12:23:46.030Z,41.95
2022-07-28T12:26:40.978Z,41.07
2022-07-28T12:29:14.601Z,39.78
2022-07-28T12:31:56.484Z,39.21
2022-07-28T12:34:28.793Z,39.71
2022-07-28T12:37:02.179Z,40.21
2022-07-28T12:39:34.728Z,39.58
2022-07-28T12:42:06.697Z,38.01
2022-07-28T12:44:38.200Z,38.11
2022-07-28T12:47:09.683Z,37.77
2022-07-28T12:49:41.037Z,36.97
2022-07-28T12:52:18.424Z,36.56
2022-07-28T12:54:55.489Z,35.81
2022-07-28T12:57:48.845Z,35.76
2022-07-28T13:00:22.677Z,34.87
2022-07-28T13:02:55.346Z,35.60
2022-07-28T13:05:31.006Z,34.84
2022-07-28T13:08:03.247Z,35.47
2022-07-28T13:10:35.609Z,35.23
2022-07-28T13:13:08.582Z,35.14
2022-07-28T13:15:39.413Z,33.43
2022-07-28T13:18:09.892Z,33.29
2022-07-28T13:20:49.843Z,32.69
2022-07-28T13:23:20.318Z,33.36
2022-07-28T13:25:52.696Z,33.27
2022-07-28T13:28:27.298Z,34.63
2022-07-28T13:30:58.049Z,34.61
2022-07-28T13:33:28.791Z,35.11
2022-07-28T13:36:00.949Z,35.15
2022-07-28T13:38:31.476Z,34.99
2022-07-28T13:41:02.358Z,34.54
2022-07-28T13:43:35.984Z,34.12
2022-07-28T13:46:07.762Z,33.59
2022-07-28T13:48:57.733Z,33.36
2022-07-28T13:51:29.976Z,33.29
2022-07-28T13:54:05.647Z,32.25
2022-07-28T13:56:37.224Z,32.26
2022-07-28T13:59:08.753Z,32.70
2022-07-28T14:01:41.203Z,32.88
2022-07-28T14:04:17.092Z,32.90
2022-07-28T14:06:48.163Z,32.47
2022-07-28T14:09:21.451Z,32.44
2022-07-28T14:11:53.744Z,32.50
2022-07-28T14:14:25.655Z,32.35
2022-07-28T14:16:56.637Z,32.85
2022-07-28T14:19:38.460Z,32.18
2022-07-28T14:22:13.827Z,31.57
2022-07-28T14:24:44.676Z,31.31
2022-07-28T14:27:15.614Z,30.89
2022-07-28T14:29:47.181Z,29.91
2022-07-28T14:32:17.814Z,29.71
2022-07-28T14:34:48.363Z,29.18
2022-07-28T14:37:19.569Z,28.58
2022-07-28T14:39:50.002Z,28.52
2022-07-28T14:42:20.729Z,28.64
2022-07-28T14:44:51.267Z,28.45
2022-07-28T14:47:22.628Z,28.17
2022-07-28T14:49:57.160Z,28.12
2022-07-28T14:52:29.692Z,27.91
2022-07-28T14:55:00.685Z,27.94
2022-07-28T14:57:50.215Z,28.54
2022-07-28T15:00:23.130Z,29.04
2022-07-28T15:02:54.185Z,29.34
2022-07-28T15:05:25.804Z,29.97
2022-07-28T15:07:56.816Z,31.00
2022-07-28T15:10:27.469Z,31.76
2022-07-28T15:12:57.982Z,32.67
2022-07-28T15:15:28.528Z,33.02
2022-07-28T15:17:59.879Z,33.40
2022-07-28T15:20:31.734Z,34.07
2022-07-28T15:23:02.477Z,34.61
2022-07-28T15:25:33.860Z,35.08
2022-07-28T15:28:05.466Z,35.45
2022-07-28T15:30:35.997Z,35.86
2022-07-28T15:33:13.693Z,36.30
2022-07-28T15:35:58.263Z,36.61
2022-07-28T15:38:31.690Z,37.07
2022-07-28T15:41:03.197Z,37.55
2022-07-28T15:43:34.890Z,38.38
2022-07-28T15:46:08.694Z,38.68
2022-07-28T15:48:41.397Z,39.01
2022-07-28T15:51:12.128Z,39.33
2022-07-28T15:53:42.701Z,39.42
2022-07-28T15:56:13.166Z,39.73
2022-07-28T15:58:44.167Z,39.95
2022-07-28T16:01:14.919Z,39.97
2022-07-28T16:03:45.530Z,40.63
2022-07-28T16:06:16.166Z,40.94
2022-07-28T16:08:46.888Z,41.30
2022-07-28T16:11:17.521Z,41.69
2022-07-28T16:13:48.362Z,41.59
2022-07-28T16:16:18.961Z,41.54
2022-07-28T16:18:50.100Z,41.85
2022-07-28T16:21:20.665Z,42.02
2022-07-28T16:23:54.981Z,42.06
2022-07-28T16:26:26.366Z,42.21
2022-07-28T16:28:59.426Z,42.96
2022-07-28T16:31:30.318Z,42.94
2022-07-28T16:34:01.128Z,43.24
2022-07-28T16:36:31.861Z,43.20
2022-07-28T16:39:03.990Z,43.28
2022-07-28T16:41:47.746Z,43.62
2022-07-28T16:44:19.585Z,43.81
2022-07-28T16:46:50.263Z,43.69
2022-07-28T16:49:21.098Z,43.47
2022-07-28T16:51:52.610Z,42.94
2022-07-28T16:54:23.472Z,42.67
2022-07-28T16:56:55.608Z,42.69
2022-07-28T16:59:37.058Z,43.05
2022-07-28T17:02:17.152Z,43.44
2022-07-28T17:04:48.254Z,43.44
2022-07-28T17:07:18.915Z,43.65
2022-07-28T17:09:49.514Z,43.89
2022-07-28T17:12:19.937Z,44.13
2022-07-28T17:14:50.919Z,44.08
2022-07-28T17:17:22.057Z,44.12
2022-07-28T17:19:52.794Z,44.37
2022-07-28T17:22:24.186Z,44.43
2022-07-28T17:24:54.969Z,44.62
2022-07-28T17:27:37.644Z,44.77
2022-07-28T17:30:10.707Z,44.83
2022-07-28T17:32:42.070Z,45.10
2022-07-28T17:35:34.125Z,45.05
2022-07-28T17:38:07.135Z,45.02
2022-07-28T17:40:38.563Z,45.21
2022-07-28T17:43:12.089Z,45.37
2022-07-28T17:45:42.919Z,45.61
2022-07-28T17:48:13.388Z,45.66
2022-07-28T17:50:44.764Z,45.79
2022-07-28T17:53:15.856Z,45.82
2022-07-28T17:55:57.945Z,46.04
2022-07-28T17:58:32.210Z,46.10
2022-07-28T18:01:10.335Z,46.48
2022-07-28T18:03:58.941Z,46.81
2022-07-28T18:06:33.722Z,47.01
2022-07-28T18:09:06.790Z,47.16
2022-07-28T18:11:55.643Z,47.41
2022-07-28T18:14:29.187Z,47.76
2022-07-28T18:17:00.685Z,48.01
2022-07-28T18:19:31.365Z,48.10
2022-07-28T18:22:02.349Z,48.62
2022-07-28T18:24:32.683Z,48.88
2022-07-28T18:27:05.533Z,49.16
2022-07-28T18:29:38.081Z,49.42
2022-07-28T18:32:10.247Z,49.53
2022-07-28T18:34:41.835Z,49.66
2022-07-28T18:37:13.059Z,49.80
2022-07-28T18:39:43.788Z,50.03
2022-07-28T18:42:14.520Z,50.24
2022-07-28T18:44:45.154Z,50.40
2022-07-28T18:47:15.815Z,50.45
2022-07-28T18:49:46.310Z,50.53
2022-07-28T18:52:17.250Z,50.64
2022-07-28T18:54:48.487Z,51.04
2022-07-28T18:57:19.222Z,51.08
2022-07-28T18:59:52.214Z,51.28
2022-07-28T19:02:21.689Z,51.26
2022-07-28T19:04:58.086Z,51.36
2022-07-28T19:07:28.612Z,51.80
2022-07-28T19:09:59.652Z,51.99
2022-07-28T19:12:31.788Z,52.24
2022-07-28T19:15:03.116Z,52.47
2022-07-28T19:17:34.283Z,52.65
2022-07-28T19:20:08.009Z,52.61
2022-07-28T19:22:38.846Z,52.77
2022-07-28T19:25:10.451Z,53.07
2022-07-28T19:27:40.969Z,53.33
2022-07-28T19:30:12.770Z,53.52
2022-07-28T19:32:43.428Z,53.73
2022-07-28T19:35:14.357Z,53.92
2022-07-28T19:37:45.295Z,54.24
2022-07-28T19:40:16.071Z,54.37
2022-07-28T19:42:48.734Z,54.40
2022-07-28T19:45:19.569Z,54.87
2022-07-28T19:47:50.274Z,54.80
2022-07-28T19:50:21.145Z,55.22
2022-07-28T19:52:51.801Z,55.26
2022-07-28T19:55:23.048Z,55.45
2022-07-28T19:57:55.451Z,55.92
2022-07-28T20:00:26.398Z,56.35
2022-07-28T20:02:57.234Z,56.25
2022-07-28T20:05:28.478Z,56.86
2022-07-28T20:07:59.004Z,57.25
2022-07-28T20:10:30.248Z,57.43
2022-07-28T20:13:00.885Z,57.46
2022-07-28T20:15:31.892Z,57.73
2022-07-28T20:18:03.161Z,57.90
2022-07-28T20:20:33.876Z,57.96
2022-07-28T20:23:05.395Z,58.32
2022-07-28T20:25:36.075Z,58.27
2022-07-28T20:28:06.977Z,58.45
2022-07-28T20:30:38.032Z,58.48
2022-07-28T20:33:08.905Z,58.95
2022-07-28T20:35:40.022Z,58.95
2022-07-28T20:38:10.891Z,59.11
2022-07-28T20:40:41.532Z,59.32
2022-07-28T20:43:12.241Z,59.54
2022-07-28T20:45:42.848Z,59.66
2022-07-28T20:48:14.463Z,59.76
2022-07-28T20:50:46.072Z,59.97
2022-07-28T20:53:16.421Z,60.24
2022-07-28T20:55:47.479Z,60.59
2022-07-28T20:58:18.583Z,60.85
2022-07-28T21:00:49.493Z,60.90
2022-07-28T21:03:21.895Z,61.06
2022-07-28T21:05:53.854Z,61.32
2022-07-28T21:08:25.926Z,61.41
2022-07-28T21:10:58.191Z,61.64
2022-07-28T21:13:28.819Z,61.66
2022-07-28T21:15:59.579Z,61.83
2022-07-28T21:18:30.394Z,62.04
2022-07-28T21:21:02.080Z,62.75
2022-07-28T21:23:32.570Z,59.71
2022-07-28T21:26:03.652Z,57.83
2022-07-28T21:28:51.451Z,57.97
2022-07-28T21:31:23.863Z,58.61
2022-07-28T21:33:54.666Z,59.77
2022-07-28T21:36:25.808Z,59.89
2022-07-28T21:38:56.414Z,60.62
2022-07-28T21:41:27.218Z,61.16
2022-07-28T21:44:07.514Z,61.57
2022-07-28T21:46:39.066Z,61.65
2022-07-28T21:49:09.850Z,61.78
2022-07-28T21:51:40.685Z,62.07
2022-07-28T21:54:11.249Z,62.55
2022-07-28T21:56:42.203Z,59.57
2022-07-28T21:59:12.834Z,57.77
2022-07-28T22:01:43.616Z,58.04
2022-07-28T22:04:14.610Z,59.09
2022-07-28T22:06:46.488Z,59.56
2022-07-28T22:09:17.404Z,60.65
2022-07-28T22:11:48.235Z,61.15
2022-07-28T22:14:19.188Z,61.43
2022-07-28T22:16:50.681Z,62.10
2022-07-28T22:19:21.360Z,63.04
2022-07-28T22:21:52.307Z,62.63
2022-07-28T22:24:24.979Z,58.78
2022-07-28T22:26:55.613Z,56.91
2022-07-28T22:29:26.239Z,57.91
2022-07-28T22:31:59.371Z,59.06
2022-07-28T22:34:30.976Z,59.60
2022-07-28T22:37:11.196Z,60.28
2022-07-28T22:39:43.721Z,60.58
2022-07-28T22:42:14.570Z,61.85
2022-07-28T22:44:45.218Z,62.80
2022-07-28T22:47:15.793Z,60.81
2022-07-28T22:49:46.235Z,57.65
2022-07-28T22:52:17.076Z,57.38
2022-07-28T22:57:36.460Z,59.39
2022-07-28T23:00:08.172Z,60.25
2022-07-28T23:02:38.641Z,60.88
2022-07-28T23:05:09.742Z,60.81
2022-07-28T23:07:50.905Z,61.77
2022-07-28T23:10:27.575Z,63.16
2022-07-28T23:12:58.777Z,62.07
2022-07-28T23:15:40.078Z,57.71
2022-07-28T23:18:14.217Z,56.90
2022-07-28T23:20:45.300Z,58.02
2022-07-28T23:23:18.706Z,59.45
2022-07-28T23:25:47.601Z,60.23
2022-07-28T23:28:18.653Z,60.96
2022-07-28T23:30:51.807Z,61.52
2022-07-28T23:33:54.596Z,63.96
2022-07-28T23:36:15.079Z,60.80
2022-07-28T23:38:58.027Z,58.13
2022-07-28T23:41:28.604Z,59.52
2022-07-28T23:43:59.404Z,60.68
2022-07-28T23:46:30.037Z,61.44
2022-07-28T23:49:01.838Z,62.08
2022-07-28T23:51:47.570Z,63.10
2022-07-28T23:54:19.409Z,61.20
2022-07-28T23:56:55.637Z,56.18
2022-07-28T23:59:26.519Z,56.36
